createdAt,value
2016-12-13T00:00:50.439Z,0
2016-12-13T00:01:50.446Z,0
2016-12-13T00:02:50.504Z,0
2016-12-13T00:03:50.168Z,0
2016-12-13T00:04:50.171Z,0
2016-12-13T00:05:50.499Z,0
2016-12-13T00:06:50.273Z,0
2016-12-13T00:07:50.529Z,0
2016-12-13T00:08:50.224Z,0
2016-12-13T00:09:50.553Z,0
2016-12-13T00:10:50.569Z,0
2016-12-13T00:11:50.267Z,0
2016-12-13T00:12:49.964Z,0
2016-12-13T00:13:50.605Z,0
2016-12-13T00:14:50.302Z,0
2016-12-13T00:15:50.314Z,0
2016-12-13T00:16:50.027Z,0
2016-12-13T00:17:50.979Z,0
2016-12-13T00:18:50.671Z,0
2016-12-13T00:19:50.711Z,0
2016-12-13T00:20:50.388Z,0
2016-12-13T00:21:50.406Z,0
2016-12-13T00:22:50.409Z,0
2016-12-13T00:23:50.425Z,0
2016-12-13T00:24:51.063Z,0
2016-12-13T00:25:50.450Z,0
2016-12-13T00:26:50.782Z,0
2016-12-13T00:27:50.475Z,0
2016-12-13T00:28:50.485Z,0
2016-12-13T00:29:51.141Z,0
2016-12-13T00:30:50.515Z,0
2016-12-13T00:31:50.842Z,0
2016-12-13T00:32:50.540Z,0
2016-12-13T00:33:50.571Z,0
2016-12-13T00:34:51.197Z,0
2016-12-13T00:35:50.581Z,0
2016-12-13T00:36:50.298Z,0
2016-12-13T00:37:50.923Z,0
2016-12-13T00:38:50.938Z,0
2016-12-13T00:39:50.947Z,0
2016-12-13T00:40:50.648Z,0
2016-12-13T00:41:50.974Z,0
2016-12-13T00:42:50.995Z,0
2016-12-13T00:43:50.683Z,0
2016-12-13T00:44:51.016Z,0
2016-12-13T00:45:51.028Z,0
2016-12-13T00:46:50.721Z,0
2016-12-13T00:47:50.418Z,0
2016-12-13T00:48:51.068Z,0
2016-12-13T00:49:50.441Z,0
2016-12-13T00:50:51.090Z,0
2016-12-13T00:51:50.472Z,0
2016-12-13T00:52:51.127Z,0
2016-12-13T00:53:51.134Z,0
2016-12-13T00:54:51.459Z,0
2016-12-13T00:55:50.865Z,0
2016-12-13T00:56:50.870Z,0
2016-12-13T00:57:50.882Z,0
2016-12-13T00:58:50.588Z,0
2016-12-13T00:59:51.209Z,0
2016-12-13T01:00:51.221Z,0
2016-12-13T01:01:50.605Z,0
2016-12-13T01:02:51.565Z,0
2016-12-13T01:03:51.258Z,0
2016-12-13T01:04:51.272Z,0
2016-12-13T01:05:51.015Z,0
2016-12-13T01:06:50.983Z,0
2016-12-13T01:07:51.018Z,0
2016-12-13T01:08:50.728Z,0
2016-12-13T01:09:51.025Z,0
2016-12-13T01:10:51.357Z,0
2016-12-13T01:11:51.367Z,0
2016-12-13T01:12:51.382Z,0
2016-12-13T01:13:51.074Z,0
2016-12-13T01:14:51.718Z,0
2016-12-13T01:15:51.101Z,0
2016-12-13T01:16:51.796Z,0
2016-12-13T01:17:50.813Z,0
2016-12-13T01:18:51.142Z,0
2016-12-13T01:19:51.151Z,0
2016-12-13T01:20:51.483Z,0
2016-12-13T01:21:51.495Z,0
2016-12-13T01:22:50.880Z,0
2016-12-13T01:23:51.841Z,0
2016-12-13T01:24:50.904Z,0
2016-12-13T01:25:51.233Z,0
2016-12-13T01:26:51.255Z,0
2016-12-13T01:27:51.588Z,0
2016-12-13T01:28:51.606Z,0
2016-12-13T01:29:51.307Z,0
2016-12-13T01:30:51.301Z,0
2016-12-13T01:31:50.992Z,0
2016-12-13T01:32:51.323Z,0
2016-12-13T01:33:51.651Z,0
2016-12-13T01:34:51.347Z,0
2016-12-13T01:35:51.360Z,0
2016-12-13T01:36:51.373Z,0
2016-12-13T01:37:51.389Z,0
2016-12-13T01:38:52.039Z,0
2016-12-13T01:39:52.039Z,0
2016-12-13T01:40:51.427Z,0
2016-12-13T01:41:51.132Z,0
2016-12-13T01:42:51.768Z,0
2016-12-13T01:43:51.459Z,0
2016-12-13T01:44:51.791Z,0
2016-12-13T01:45:51.803Z,0
2016-12-13T01:46:51.538Z,0
2016-12-13T01:47:51.829Z,0
2016-12-13T01:48:51.523Z,0
2016-12-13T01:49:51.860Z,0
2016-12-13T01:50:51.575Z,0
2016-12-13T01:51:51.880Z,0
2016-12-13T01:52:51.908Z,0
2016-12-13T01:53:51.621Z,0
2016-12-13T01:54:51.949Z,0
2016-12-13T01:55:51.928Z,0
2016-12-13T01:56:51.631Z,0
2016-12-13T01:57:51.328Z,0
2016-12-13T01:58:51.968Z,0
2016-12-13T01:59:51.663Z,0
2016-12-13T02:00:51.681Z,0
2016-12-13T02:01:52.004Z,0
2016-12-13T02:02:51.704Z,0
2016-12-13T02:03:51.718Z,0
2016-12-13T02:04:51.728Z,0
2016-12-13T02:05:51.423Z,0
2016-12-13T02:06:52.386Z,0
2016-12-13T02:07:52.091Z,0
2016-12-13T02:08:52.098Z,0
2016-12-13T02:09:51.479Z,0
2016-12-13T02:10:51.802Z,0
2016-12-13T02:11:51.889Z,0
2016-12-13T02:12:52.461Z,0
2016-12-13T02:13:52.159Z,0
2016-12-13T02:14:51.543Z,0
2016-12-13T02:15:52.213Z,0
2016-12-13T02:16:51.564Z,0
2016-12-13T02:17:51.895Z,0
2016-12-13T02:18:51.908Z,0
2016-12-13T02:19:52.231Z,0
2016-12-13T02:20:52.249Z,0
2016-12-13T02:21:51.945Z,0
2016-12-13T02:22:52.588Z,0
2016-12-13T02:23:52.287Z,0
2016-12-13T02:24:52.017Z,0
2016-12-13T02:25:52.335Z,0
2016-12-13T02:26:52.323Z,0
2016-12-13T02:27:52.344Z,0
2016-12-13T02:28:52.031Z,0
2016-12-13T02:29:52.365Z,0
2016-12-13T02:30:52.057Z,0
2016-12-13T02:31:51.757Z,0
2016-12-13T02:32:52.406Z,0
2016-12-13T02:33:52.107Z,0
2016-12-13T02:34:52.108Z,0
2016-12-13T02:35:52.450Z,0
2016-12-13T02:36:52.445Z,0
2016-12-13T02:37:52.179Z,0
2016-12-13T02:38:52.157Z,0
2016-12-13T02:39:52.169Z,0
2016-12-13T02:40:52.502Z,0
2016-12-13T02:41:52.512Z,0
2016-12-13T02:42:52.237Z,0
2016-12-13T02:43:52.541Z,0
2016-12-13T02:44:52.238Z,0
2016-12-13T02:45:52.250Z,0
2016-12-13T02:46:52.260Z,0
2016-12-13T02:47:52.582Z,0
2016-12-13T02:48:52.280Z,0
2016-12-13T02:49:52.611Z,0
2016-12-13T02:50:51.992Z,0
2016-12-13T02:51:52.324Z,0
2016-12-13T02:52:52.335Z,0
2016-12-13T02:53:52.680Z,0
2016-12-13T02:54:52.376Z,0
2016-12-13T02:55:52.396Z,0
2016-12-13T02:56:53.069Z,0
2016-12-13T02:57:52.398Z,0
2016-12-13T02:58:52.720Z,0
2016-12-13T02:59:52.424Z,0
2016-12-13T03:00:52.440Z,0
2016-12-13T03:01:52.135Z,0
2016-12-13T03:02:52.776Z,0
2016-12-13T03:03:52.786Z,0
2016-12-13T03:04:52.825Z,0
2016-12-13T03:05:52.820Z,0
2016-12-13T03:06:52.517Z,0
2016-12-13T03:07:52.833Z,0
2016-12-13T03:08:52.535Z,0
2016-12-13T03:09:52.228Z,0
2016-12-13T03:10:52.876Z,0
2016-12-13T03:11:53.200Z,0
2016-12-13T03:12:53.222Z,0
2016-12-13T03:13:52.598Z,0
2016-12-13T03:14:52.606Z,0
2016-12-13T03:15:52.300Z,0
2016-12-13T03:16:52.651Z,0
2016-12-13T03:17:52.959Z,0
2016-12-13T03:18:52.968Z,0
2016-12-13T03:19:52.986Z,0
2016-12-13T03:20:53.001Z,0
2016-12-13T03:21:52.379Z,0
2016-12-13T03:22:52.710Z,0
2016-12-13T03:23:53.349Z,0
2016-12-13T03:24:52.734Z,0
2016-12-13T03:25:52.748Z,0
2016-12-13T03:26:53.390Z,0
2016-12-13T03:27:53.091Z,0
2016-12-13T03:28:52.789Z,0
2016-12-13T03:29:52.801Z,0
2016-12-13T03:30:53.437Z,0
2016-12-13T03:31:53.451Z,0
2016-12-13T03:32:52.517Z,0
2016-12-13T03:33:52.847Z,0
2016-12-13T03:34:52.857Z,0
2016-12-13T03:35:52.870Z,0
2016-12-13T03:36:52.884Z,0
2016-12-13T03:37:52.921Z,0
2016-12-13T03:38:52.590Z,0
2016-12-13T03:39:53.238Z,0
2016-12-13T03:40:53.567Z,0
2016-12-13T03:41:52.683Z,0
2016-12-13T03:42:53.270Z,0
2016-12-13T03:43:52.652Z,0
2016-12-13T03:44:53.613Z,0
2016-12-13T03:45:53.313Z,0
2016-12-13T03:46:52.691Z,0
2016-12-13T03:47:53.040Z,0
2016-12-13T03:48:52.734Z,0
2016-12-13T03:49:53.358Z,0
2016-12-13T03:50:53.064Z,0
2016-12-13T03:51:53.070Z,0
2016-12-13T03:52:52.762Z,0
2016-12-13T03:53:52.779Z,0
2016-12-13T03:54:53.112Z,0
2016-12-13T03:55:53.436Z,0
2016-12-13T03:56:52.871Z,0
2016-12-13T03:57:53.163Z,0
2016-12-13T03:58:53.491Z,0
2016-12-13T03:59:53.172Z,0
2016-12-13T04:00:53.500Z,0
2016-12-13T04:01:53.512Z,0
2016-12-13T04:02:53.203Z,0
2016-12-13T04:03:53.219Z,0
2016-12-13T04:04:53.548Z,0
2016-12-13T04:05:52.930Z,0
2016-12-13T04:06:53.259Z,0
2016-12-13T04:07:53.586Z,0
2016-12-13T04:08:53.611Z,0
2016-12-13T04:09:53.609Z,0
2016-12-13T04:10:52.999Z,0
2016-12-13T04:11:53.636Z,0
2016-12-13T04:12:53.330Z,0
2016-12-13T04:13:53.341Z,0
2016-12-13T04:14:53.042Z,0
2016-12-13T04:15:53.700Z,0
2016-12-13T04:16:53.068Z,0
2016-12-13T04:17:53.731Z,0
2016-12-13T04:18:53.413Z,0
2016-12-13T04:19:53.101Z,0
2016-12-13T04:20:53.429Z,0
2016-12-13T04:21:53.787Z,0
2016-12-13T04:22:53.770Z,0
2016-12-13T04:23:53.474Z,0
2016-12-13T04:24:53.476Z,0
2016-12-13T04:25:53.807Z,0
2016-12-13T04:26:53.874Z,0
2016-12-13T04:27:53.842Z,0
2016-12-13T04:28:53.547Z,0
2016-12-13T04:29:53.225Z,0
2016-12-13T04:30:53.872Z,0
2016-12-13T04:31:54.201Z,0
2016-12-13T04:32:53.582Z,0
2016-12-13T04:33:53.625Z,0
2016-12-13T04:34:53.923Z,0
2016-12-13T04:35:53.935Z,0
2016-12-13T04:36:53.638Z,0
2016-12-13T04:37:53.977Z,0
2016-12-13T04:38:53.687Z,0
2016-12-13T04:39:53.670Z,0
2016-12-13T04:40:53.997Z,0
2016-12-13T04:42:08.943Z,0
2016-12-13T04:42:53.701Z,0
2016-12-13T04:43:54.349Z,0
2016-12-13T04:44:53.727Z,0
2016-12-13T04:45:53.743Z,0
2016-12-13T04:46:53.446Z,0
2016-12-13T04:47:53.761Z,0
2016-12-13T04:48:54.094Z,0
2016-12-13T04:49:54.108Z,0
2016-12-13T04:50:54.121Z,0
2016-12-13T04:51:53.834Z,0
2016-12-13T04:52:53.531Z,0
2016-12-13T04:53:53.859Z,0
2016-12-13T04:54:53.535Z,0
2016-12-13T04:55:53.861Z,0
2016-12-13T04:56:54.314Z,0
2016-12-13T04:57:54.201Z,0
2016-12-13T04:58:53.902Z,0
2016-12-13T04:59:53.635Z,0
2016-12-13T05:00:53.923Z,0
2016-12-13T05:01:54.252Z,0
2016-12-13T05:02:53.634Z,0
2016-12-13T05:03:54.284Z,0
2016-12-13T05:04:53.968Z,0
2016-12-13T05:05:53.994Z,0
2016-12-13T05:06:53.997Z,0
2016-12-13T05:07:54.640Z,0
2016-12-13T05:08:54.337Z,0
2016-12-13T05:09:54.349Z,0
2016-12-13T05:10:54.358Z,0
2016-12-13T05:11:54.376Z,0
2016-12-13T05:12:54.700Z,0
2016-12-13T05:13:54.083Z,0
2016-12-13T05:14:53.775Z,0
2016-12-13T05:15:54.106Z,0
2016-12-13T05:16:54.440Z,0
2016-12-13T05:17:54.135Z,0
2016-12-13T05:18:53.823Z,0
2016-12-13T05:19:54.152Z,0
2016-12-13T05:20:54.823Z,0
2016-12-13T05:21:53.881Z,0
2016-12-13T05:22:54.189Z,0
2016-12-13T05:23:53.882Z,0
2016-12-13T05:24:54.215Z,0
2016-12-13T05:25:53.912Z,0
2016-12-13T05:26:54.234Z,0
2016-12-13T05:27:54.256Z,0
2016-12-13T05:28:54.263Z,0
2016-12-13T05:29:54.277Z,0
2016-12-13T05:30:53.980Z,0
2016-12-13T05:31:54.663Z,0
2016-12-13T05:32:54.628Z,0
2016-12-13T05:33:54.634Z,0
2016-12-13T05:34:54.652Z,0
2016-12-13T05:35:54.034Z,0
2016-12-13T05:36:54.677Z,0
2016-12-13T05:37:54.378Z,0
2016-12-13T05:38:54.707Z,0
2016-12-13T05:39:54.080Z,0
2016-12-13T05:40:54.406Z,0
2016-12-13T05:41:54.736Z,0
2016-12-13T05:42:54.769Z,0
2016-12-13T05:43:54.445Z,0
2016-12-13T05:44:54.477Z,0
2016-12-13T05:45:54.471Z,0
2016-12-13T05:46:54.795Z,0
2016-12-13T05:47:54.812Z,0
2016-12-13T05:48:54.829Z,0
2016-12-13T05:49:54.833Z,0
2016-12-13T05:50:55.161Z,0
2016-12-13T05:51:54.541Z,0
2016-12-13T05:52:54.871Z,0
2016-12-13T05:53:54.564Z,0
2016-12-13T05:54:54.260Z,0
2016-12-13T05:55:54.917Z,0
2016-12-13T05:56:54.605Z,0
2016-12-13T05:57:54.615Z,0
2016-12-13T05:58:54.625Z,0
2016-12-13T05:59:54.635Z,0
2016-12-13T06:00:54.963Z,0
2016-12-13T06:01:55.029Z,0
2016-12-13T06:02:54.388Z,0
2016-12-13T06:03:55.006Z,0
2016-12-13T06:04:55.329Z,0
2016-12-13T06:05:54.712Z,0
2016-12-13T06:06:55.048Z,0
2016-12-13T06:07:54.419Z,0
2016-12-13T06:08:54.765Z,0
2016-12-13T06:09:54.760Z,0
2016-12-13T06:10:54.770Z,0
2016-12-13T06:11:54.465Z,0
2016-12-13T06:12:55.111Z,0
2016-12-13T06:13:54.834Z,0
2016-12-13T06:14:54.823Z,0
2016-12-13T06:15:54.832Z,0
2016-12-13T06:16:54.844Z,0
2016-12-13T06:17:55.195Z,0
2016-12-13T06:18:55.181Z,0
2016-12-13T06:19:54.568Z,0
2016-12-13T06:20:55.232Z,0
2016-12-13T06:21:55.221Z,0
2016-12-13T06:22:55.228Z,0
2016-12-13T06:23:55.579Z,0
2016-12-13T06:24:54.749Z,0
2016-12-13T06:25:54.952Z,0
2016-12-13T06:26:55.278Z,4
2016-12-13T06:27:54.992Z,4
2016-12-13T06:28:54.701Z,0
2016-12-13T06:29:54.997Z,0
2016-12-13T06:30:55.326Z,4
2016-12-13T06:31:55.348Z,0
2016-12-13T06:32:55.350Z,0
2016-12-13T06:33:55.679Z,4
2016-12-13T06:34:54.741Z,4
2016-12-13T06:35:55.395Z,4
2016-12-13T06:36:55.086Z,8
2016-12-13T06:37:55.410Z,4
2016-12-13T06:38:55.751Z,8
2016-12-13T06:39:54.896Z,8
2016-12-13T06:40:55.126Z,8
2016-12-13T06:41:55.461Z,8
2016-12-13T06:42:55.473Z,8
2016-12-13T06:43:55.166Z,12
2016-12-13T06:44:55.498Z,16
2016-12-13T06:45:54.874Z,12
2016-12-13T06:46:54.894Z,16
2016-12-13T06:47:55.525Z,16
2016-12-13T06:48:55.541Z,16
2016-12-13T06:49:55.868Z,20
2016-12-13T06:50:55.568Z,24
2016-12-13T06:51:55.573Z,24
2016-12-13T06:52:54.959Z,24
2016-12-13T06:53:55.282Z,28
2016-12-13T06:54:55.616Z,28
2016-12-13T06:55:55.309Z,28
2016-12-13T06:56:55.322Z,32
2016-12-13T06:57:55.651Z,32
2016-12-13T06:58:55.349Z,40
2016-12-13T06:59:55.674Z,44
2016-12-13T07:00:55.686Z,44
2016-12-13T07:01:55.065Z,48
2016-12-13T07:02:55.394Z,52
2016-12-13T07:03:55.406Z,56
2016-12-13T07:04:55.423Z,60
2016-12-13T07:05:55.440Z,64
2016-12-13T07:06:55.441Z,64
2016-12-13T07:07:55.157Z,68
2016-12-13T07:08:55.481Z,76
2016-12-13T07:09:56.112Z,76
2016-12-13T07:10:55.803Z,80
2016-12-13T07:11:55.818Z,84
2016-12-13T07:12:55.640Z,84
2016-12-13T07:13:55.844Z,88
2016-12-13T07:14:55.871Z,92
2016-12-13T07:15:55.864Z,96
2016-12-13T07:16:55.875Z,96
2016-12-13T07:17:55.571Z,100
2016-12-13T07:18:55.275Z,100
2016-12-13T07:19:55.598Z,104
2016-12-13T07:20:55.292Z,108
2016-12-13T07:21:55.617Z,108
2016-12-13T07:22:55.948Z,108
2016-12-13T07:23:55.642Z,116
2016-12-13T07:24:55.657Z,120
2016-12-13T07:25:56.298Z,120
2016-12-13T07:26:56.313Z,124
2016-12-13T07:27:55.690Z,124
2016-12-13T07:28:55.391Z,132
2016-12-13T07:29:55.422Z,136
2016-12-13T07:30:55.728Z,140
2016-12-13T07:31:56.102Z,144
2016-12-13T07:32:56.068Z,144
2016-12-13T07:33:56.088Z,152
2016-12-13T07:34:55.457Z,152
2016-12-13T07:35:55.794Z,156
2016-12-13T07:36:56.434Z,156
2016-12-13T07:37:55.501Z,160
2016-12-13T07:38:55.523Z,164
2016-12-13T07:39:55.518Z,172
2016-12-13T07:40:55.854Z,172
2016-12-13T07:41:55.540Z,180
2016-12-13T07:42:55.556Z,180
2016-12-13T07:43:55.884Z,180
2016-12-13T07:44:55.615Z,184
2016-12-13T07:45:56.552Z,184
2016-12-13T07:46:55.926Z,188
2016-12-13T07:47:55.932Z,192
2016-12-13T07:48:55.945Z,200
2016-12-13T07:49:56.272Z,200
2016-12-13T07:50:56.291Z,200
2016-12-13T07:51:55.983Z,204
2016-12-13T07:52:55.989Z,204
2016-12-13T07:53:56.016Z,208
2016-12-13T07:54:55.706Z,208
2016-12-13T07:55:56.671Z,208
2016-12-13T07:56:56.043Z,212
2016-12-13T07:57:56.055Z,212
2016-12-13T07:58:56.379Z,212
2016-12-13T07:59:56.078Z,220
2016-12-13T08:00:56.090Z,220
2016-12-13T08:01:56.107Z,220
2016-12-13T08:02:56.466Z,220
2016-12-13T08:03:56.776Z,220
2016-12-13T08:04:55.831Z,224
2016-12-13T08:05:55.844Z,224
2016-12-13T08:06:56.168Z,228
2016-12-13T08:07:55.877Z,228
2016-12-13T08:08:56.505Z,228
2016-12-13T08:09:56.203Z,232
2016-12-13T08:10:56.526Z,232
2016-12-13T08:11:56.234Z,236
2016-12-13T08:12:56.552Z,240
2016-12-13T08:13:56.571Z,240
2016-12-13T08:14:56.907Z,240
2016-12-13T08:15:56.904Z,244
2016-12-13T08:16:55.975Z,248
2016-12-13T08:17:56.612Z,248
2016-12-13T08:18:56.628Z,252
2016-12-13T08:19:56.960Z,256
2016-12-13T08:20:56.651Z,256
2016-12-13T08:21:56.669Z,260
2016-12-13T08:22:56.684Z,264
2016-12-13T08:23:56.376Z,268
2016-12-13T08:24:57.025Z,268
2016-12-13T08:25:56.402Z,268
2016-12-13T08:26:56.466Z,272
2016-12-13T08:27:56.433Z,276
2016-12-13T08:28:56.130Z,276
2016-12-13T08:29:56.769Z,268
2016-12-13T08:30:56.476Z,276
2016-12-13T08:31:56.794Z,280
2016-12-13T08:32:56.809Z,276
2016-12-13T08:33:56.833Z,276
2016-12-13T08:34:56.198Z,280
2016-12-13T08:35:56.532Z,284
2016-12-13T08:36:56.540Z,284
2016-12-13T08:37:56.556Z,284
2016-12-13T08:38:56.253Z,284
2016-12-13T08:39:57.208Z,284
2016-12-13T08:40:56.280Z,284
2016-12-13T08:41:56.614Z,284
2016-12-13T08:42:56.940Z,284
2016-12-13T08:43:57.269Z,280
2016-12-13T08:44:56.650Z,284
2016-12-13T08:45:56.659Z,288
2016-12-13T08:46:56.677Z,288
2016-12-13T08:47:57.023Z,288
2016-12-13T08:48:56.700Z,288
2016-12-13T08:49:57.344Z,288
2016-12-13T08:50:56.720Z,288
2016-12-13T08:51:57.077Z,292
2016-12-13T08:52:57.065Z,288
2016-12-13T08:53:56.454Z,288
2016-12-13T08:54:56.782Z,280
2016-12-13T08:55:57.116Z,292
2016-12-13T08:56:57.117Z,292
2016-12-13T08:57:56.822Z,292
2016-12-13T08:58:57.464Z,292
2016-12-13T08:59:57.477Z,300
2016-12-13T09:00:56.858Z,300
2016-12-13T09:01:56.569Z,308
2016-12-13T09:02:57.205Z,312
2016-12-13T09:03:57.216Z,316
2016-12-13T09:04:56.918Z,320
2016-12-13T09:05:57.244Z,332
2016-12-13T09:06:57.283Z,344
2016-12-13T09:07:56.954Z,360
2016-12-13T09:08:56.970Z,388
2016-12-13T09:09:57.314Z,428
2016-12-13T09:10:57.315Z,480
2016-12-13T09:11:57.005Z,564
2016-12-13T09:12:57.040Z,828
2016-12-13T09:13:57.034Z,1588
2016-12-13T09:14:57.689Z,3144
2016-12-13T09:15:57.066Z,5216
2016-12-13T09:16:57.401Z,5228
2016-12-13T09:17:57.089Z,4000
2016-12-13T09:18:57.106Z,2972
2016-12-13T09:19:57.117Z,2896
2016-12-13T09:20:57.139Z,3280
2016-12-13T09:21:56.840Z,3168
2016-12-13T09:22:57.509Z,2748
2016-12-13T09:23:57.503Z,2440
2016-12-13T09:24:57.200Z,2696
2016-12-13T09:25:57.527Z,4064
2016-12-13T09:26:57.863Z,5964
2016-12-13T09:27:57.248Z,6928
2016-12-13T09:28:57.262Z,6244
2016-12-13T09:29:57.591Z,4700
2016-12-13T09:30:57.294Z,3380
2016-12-13T09:31:56.997Z,2672
2016-12-13T09:32:57.321Z,3752
2016-12-13T09:33:57.343Z,6172
2016-12-13T09:34:57.361Z,6908
2016-12-13T09:35:57.400Z,5512
2016-12-13T09:36:57.076Z,5292
2016-12-13T09:37:57.409Z,5092
2016-12-13T09:38:57.742Z,4040
2016-12-13T09:39:57.760Z,3656
2016-12-13T09:40:57.470Z,3672
2016-12-13T09:41:57.181Z,4260
2016-12-13T09:42:58.136Z,4736
2016-12-13T09:43:57.835Z,5260
2016-12-13T09:44:58.174Z,5876
2016-12-13T09:45:58.209Z,6568
2016-12-13T09:46:57.905Z,7736
2016-12-13T09:47:57.912Z,8776
2016-12-13T09:48:57.934Z,8652
2016-12-13T09:49:57.955Z,8344
2016-12-13T09:50:57.975Z,7000
2016-12-13T09:51:58.024Z,4436
2016-12-13T09:52:57.694Z,3336
2016-12-13T09:53:57.743Z,2860
2016-12-13T09:54:57.431Z,2664
2016-12-13T09:56:21.459Z,2516
2016-12-13T09:56:58.112Z,2476
2016-12-13T09:57:57.801Z,2580
2016-12-13T09:58:57.829Z,4376
2016-12-13T09:59:57.871Z,4960
2016-12-13T10:00:58.176Z,3684
2016-12-13T10:01:58.286Z,3068
2016-12-13T10:02:57.940Z,2704
2016-12-13T10:03:57.610Z,2468
2016-12-13T10:04:57.627Z,2496
2016-12-13T10:05:58.285Z,2720
2016-12-13T10:06:57.987Z,2908
2016-12-13T10:07:58.010Z,3348
2016-12-13T10:08:58.352Z,3736
2016-12-13T10:09:58.365Z,3720
2016-12-13T10:10:57.752Z,3864
2016-12-13T10:11:58.091Z,3732
2016-12-13T10:12:58.457Z,3336
2016-12-13T10:13:58.136Z,3016
2016-12-13T10:14:57.836Z,3020
2016-12-13T10:15:57.863Z,3172
2016-12-13T10:16:58.521Z,3368
2016-12-13T10:17:58.222Z,3916
2016-12-13T10:18:58.238Z,4368
2016-12-13T10:19:58.260Z,3876
2016-12-13T10:20:58.918Z,3488
2016-12-13T10:21:58.617Z,3332
2016-12-13T10:22:58.326Z,3104
2016-12-13T10:23:58.682Z,2944
2016-12-13T10:24:58.367Z,2932
2016-12-13T10:25:58.705Z,2940
2016-12-13T10:26:58.722Z,3092
2016-12-13T10:27:59.058Z,3128
2016-12-13T10:28:58.780Z,3148
2016-12-13T10:29:58.790Z,3204
2016-12-13T10:30:58.203Z,3080
2016-12-13T10:31:58.852Z,3392
2016-12-13T10:32:58.545Z,3800
2016-12-13T10:33:58.553Z,3628
2016-12-13T10:34:58.893Z,3728
2016-12-13T10:35:58.611Z,3816
2016-12-13T10:36:58.937Z,3620
2016-12-13T10:37:58.961Z,3356
2016-12-13T10:38:58.666Z,3132
2016-12-13T10:39:59.011Z,3076
2016-12-13T10:40:58.705Z,3416
2016-12-13T10:41:59.406Z,3848
2016-12-13T10:42:59.068Z,4072
2016-12-13T10:43:59.403Z,3748
2016-12-13T10:44:59.423Z,3044
2016-12-13T10:45:59.129Z,3012
2016-12-13T10:46:58.845Z,3268
2016-12-13T10:47:58.558Z,3568
2016-12-13T10:48:58.875Z,3608
2016-12-13T10:49:58.896Z,3320
2016-12-13T10:50:59.551Z,2860
2016-12-13T10:51:58.938Z,2428
2016-12-13T10:52:59.596Z,2224
2016-12-13T10:53:59.012Z,2248
2016-12-13T10:54:59.655Z,2232
2016-12-13T10:55:59.349Z,2272
2016-12-13T10:56:59.415Z,2300
2016-12-13T10:57:59.401Z,2196
2016-12-13T10:58:59.401Z,2060
2016-12-13T10:59:59.114Z,2096
2016-12-13T11:00:59.446Z,2084
2016-12-13T11:01:59.154Z,2072
2016-12-13T11:02:58.861Z,2056
2016-12-13T11:03:59.513Z,2040
2016-12-13T11:04:59.847Z,2028
2016-12-13T11:05:59.242Z,2020
2016-12-13T11:06:59.582Z,2004
2016-12-13T11:07:59.599Z,2016
2016-12-13T11:08:58.984Z,2020
2016-12-13T11:09:59.324Z,2020
2016-12-13T11:10:59.655Z,2016
2016-12-13T11:11:59.414Z,2028
2016-12-13T11:12:59.705Z,2036
2016-12-13T11:13:59.407Z,2036
2016-12-13T11:14:59.433Z,2032
2016-12-13T11:15:59.453Z,2020
2016-12-13T11:16:59.785Z,2016
2016-12-13T11:17:59.822Z,2024
2016-12-13T11:18:59.836Z,2012
2016-12-13T11:19:59.855Z,2032
2016-12-13T11:20:59.876Z,2036
2016-12-13T11:21:59.579Z,2056
2016-12-13T11:23:00.234Z,2052
2016-12-13T11:23:59.625Z,2056
2016-12-13T11:24:59.968Z,2056
2016-12-13T11:25:59.664Z,2060
2016-12-13T11:26:59.689Z,2064
2016-12-13T11:28:00.028Z,2072
2016-12-13T11:29:00.055Z,2080
2016-12-13T11:30:00.069Z,2080
2016-12-13T11:31:00.407Z,2140
2016-12-13T11:32:00.118Z,2076
2016-12-13T11:32:59.821Z,2068
2016-12-13T11:33:59.533Z,2056
2016-12-13T11:35:00.181Z,2048
2016-12-13T11:35:59.889Z,2052
2016-12-13T11:36:59.979Z,2004
2016-12-13T11:38:00.262Z,1996
2016-12-13T11:39:00.575Z,2016
2016-12-13T11:40:00.286Z,1996
2016-12-13T11:41:00.310Z,1984
2016-12-13T11:42:00.332Z,1968
2016-12-13T11:43:00.353Z,1976
2016-12-13T11:43:59.752Z,1956
2016-12-13T11:45:00.081Z,1948
2016-12-13T11:46:00.414Z,1948
2016-12-13T11:47:00.122Z,1944
2016-12-13T11:48:00.463Z,1944
2016-12-13T11:49:00.172Z,1960
2016-12-13T11:49:59.870Z,1940
2016-12-13T11:51:00.202Z,1964
2016-12-13T11:52:00.873Z,1968
2016-12-13T11:53:00.571Z,1960
2016-12-13T11:54:00.276Z,1940
2016-12-13T11:55:00.287Z,1924
2016-12-13T11:56:00.312Z,1924
2016-12-13T11:57:00.017Z,1924
2016-12-13T11:58:00.346Z,1928
2016-12-13T11:59:00.695Z,1924
2016-12-13T12:00:00.397Z,1912
2016-12-13T12:01:01.053Z,1896
2016-12-13T12:02:01.069Z,1852
2016-12-13T12:03:00.781Z,1848
2016-12-13T12:04:00.800Z,1852
2016-12-13T12:05:00.823Z,1856
2016-12-13T12:06:00.839Z,1836
2016-12-13T12:07:00.866Z,1780
2016-12-13T12:08:00.601Z,1752
2016-12-13T12:09:00.904Z,1752
2016-12-13T12:10:01.240Z,1724
2016-12-13T12:11:01.283Z,1720
2016-12-13T12:12:00.972Z,1724
2016-12-13T12:13:00.988Z,1704
2016-12-13T12:14:00.701Z,1708
2016-12-13T12:15:00.720Z,1704
2016-12-13T12:16:00.439Z,1704
2016-12-13T12:17:00.778Z,1708
2016-12-13T12:18:01.099Z,1692
2016-12-13T12:19:00.814Z,1680
2016-12-13T12:20:00.833Z,1676
2016-12-13T12:21:00.850Z,1676
2016-12-13T12:22:01.187Z,1544
2016-12-13T12:23:00.899Z,1548
2016-12-13T12:24:01.231Z,1648
2016-12-13T12:25:00.623Z,1680
2016-12-13T12:26:00.961Z,1676
2016-12-13T12:27:01.032Z,1676
2016-12-13T12:28:01.319Z,1680
2016-12-13T12:29:01.339Z,1680
2016-12-13T12:30:01.049Z,1640
2016-12-13T12:31:01.072Z,1668
2016-12-13T12:32:01.720Z,1652
2016-12-13T12:33:01.112Z,1648
2016-12-13T12:34:01.473Z,1636
2016-12-13T12:35:01.785Z,1636
2016-12-13T12:36:00.862Z,1628
2016-12-13T12:37:01.513Z,1620
2016-12-13T12:38:01.226Z,1616
2016-12-13T12:39:00.925Z,1584
2016-12-13T12:40:01.578Z,1556
2016-12-13T12:41:01.284Z,1536
2016-12-13T12:42:01.314Z,1504
2016-12-13T12:43:01.961Z,1488
2016-12-13T12:44:01.041Z,1492
2016-12-13T12:45:01.370Z,1476
2016-12-13T12:46:02.025Z,1468
2016-12-13T12:47:02.050Z,1436
2016-12-13T12:48:01.751Z,1424
2016-12-13T12:49:01.775Z,1392
2016-12-13T12:50:01.483Z,1316
2016-12-13T12:51:01.504Z,1352
2016-12-13T12:52:01.519Z,1412
2016-12-13T12:53:01.868Z,1376
2016-12-13T12:54:01.568Z,1352
2016-12-13T12:55:01.589Z,1312
2016-12-13T12:56:01.934Z,1276
2016-12-13T12:57:02.336Z,1240
2016-12-13T12:58:01.342Z,1184
2016-12-13T12:59:01.995Z,1168
2016-12-13T13:00:01.391Z,1160
2016-12-13T13:01:01.725Z,1136
2016-12-13T13:02:02.060Z,1020
2016-12-13T13:04:01.792Z,940
2016-12-13T13:05:02.157Z,908
2016-12-13T13:06:01.834Z,868
2016-12-13T13:07:01.861Z,844
2016-12-13T13:08:02.205Z,836
2016-12-13T13:09:02.563Z,920
2016-12-13T13:10:02.235Z,932
2016-12-13T13:11:01.630Z,880
2016-12-13T13:12:02.605Z,828
2016-12-13T13:13:02.619Z,964
2016-12-13T13:14:01.693Z,1004
2016-12-13T13:15:02.031Z,1160
2016-12-13T13:16:01.756Z,1304
2016-12-13T13:17:02.101Z,1340
2016-12-13T13:18:01.800Z,1368
2016-12-13T13:19:02.123Z,1164
2016-12-13T13:20:02.472Z,772
2016-12-13T13:21:02.169Z,872
2016-12-13T13:22:02.185Z,1228
2016-12-13T13:23:02.207Z,1220
2016-12-13T13:24:02.540Z,1208
2016-12-13T13:25:02.565Z,1184
2016-12-13T13:26:02.279Z,1172
2016-12-13T13:27:02.936Z,1124
2016-12-13T13:28:02.029Z,1076
2016-12-13T13:29:02.666Z,1040
2016-12-13T13:30:02.675Z,1048
2016-12-13T13:31:02.380Z,1000
2016-12-13T13:32:02.406Z,940
2016-12-13T13:33:02.740Z,916
2016-12-13T13:34:02.447Z,916
2016-12-13T13:35:02.784Z,896
2016-12-13T13:36:02.804Z,944
2016-12-13T13:37:02.510Z,928
2016-12-13T13:38:03.171Z,956
2016-12-13T13:39:02.257Z,1040
2016-12-13T13:40:02.579Z,988
2016-12-13T13:41:02.915Z,824
2016-12-13T13:42:02.672Z,844
2016-12-13T13:43:02.338Z,960
2016-12-13T13:44:02.980Z,764
2016-12-13T13:45:03.003Z,828
2016-12-13T13:46:02.397Z,712
2016-12-13T13:47:02.748Z,720
2016-12-13T13:48:02.436Z,704
2016-12-13T13:49:03.404Z,704
2016-12-13T13:50:03.488Z,712
2016-12-13T13:51:02.847Z,760
2016-12-13T13:52:02.841Z,680
2016-12-13T13:53:02.856Z,760
2016-12-13T13:54:02.881Z,936
2016-12-13T13:55:03.220Z,916
2016-12-13T13:56:02.924Z,852
2016-12-13T13:57:03.264Z,740
2016-12-13T13:58:03.297Z,756
2016-12-13T13:59:03.317Z,708
2016-12-13T14:00:03.334Z,496
2016-12-13T14:01:02.736Z,460
2016-12-13T14:02:03.420Z,428
2016-12-13T14:03:03.080Z,344
2016-12-13T14:04:03.421Z,300
2016-12-13T14:05:03.439Z,284
2016-12-13T14:06:02.839Z,276
2016-12-13T14:07:03.164Z,256
2016-12-13T14:08:02.876Z,244